Home > Products > Valid Products > TAF

000
FTUS41 KPHI 050151 AAA
TAFACY
TAF AMD
KACY 050151Z 0502/0524 07006KT P6SM VCSH SCT025 BKN035
     FM050400 VRB03KT P6SM FEW040 BKN250
      TEMPO 0508/0512 5SM BR
     FM051200 01003KT P6SM SCT250
     FM051600 16006KT P6SM FEW050=



000
FTUS41 KPHI 050150 AAA
TAFMIV
TAF AMD
KMIV 050150Z 0502/0524 07006KT P6SM VCSH FEW020 OVC035
     FM050400 VRB03KT P6SM SCT040 BKN250
      TEMPO 0508/0512 2SM BR
     FM051200 01003KT P6SM SCT250
     FM051600 16006KT P6SM FEW050=



000
FTUS41 KPHI 050149 AAA
TAFILG
TAF AMD
KILG 050149Z 0502/0524 06008KT P6SM SCT025 OVC035
     FM050400 05006KT P6SM SCT040 BKN150
     FM050600 VRB03KT P6SM FEW050 BKN250
     FM051200 01003KT P6SM SCT250
     FM051600 17006KT P6SM FEW050=



000
FTUS41 KPHI 050149 AAA
TAFPHL
TAF AMD
KPHL 050149Z 0502/0606 06006KT P6SM SCT025 OVC035
     FM050400 05006KT P6SM SCT050 BKN150
     FM050600 VRB03KT P6SM FEW050 BKN250
     FM051200 36003KT P6SM SCT250
     FM051600 23006KT P6SM FEW050=



000
FTUS41 KPHI 050148 AAA
TAFPNE
TAF AMD
KPNE 050148Z 0502/0524 04006KT P6SM OVC035
     FM050400 VRB03KT P6SM SCT040 BKN150
     FM050600 VRB03KT P6SM FEW050 SCT250
     FM051200 36003KT P6SM SCT250
     FM051600 24006KT P6SM FEW050=



000
FTUS41 KPHI 050148 AAA
TAFPNE
TAF AMD
KPNE 050148Z 0502/0524 04006KT P6SM OVC035
     FM050400 VRB03KT P6SM SCT040 BKN150
     FM050600 VRB03KT P6SM FEW050 SCT250
     FM051200 36003KT P6SM SCT250
     FM051600 24006KT P6SM FEW050=



000
FTUS41 KPHI 050147 AAA
TAFABE
TAF AMD
KABE 050147Z 0502/0524 06005KT P6SM OVC035
     FM050400 VRB03KT P6SM SCT050 BKN150
     FM050600 VRB03KT P6SM FEW050 SCT250
      TEMPO 0509/0512 5SM BR
     FM051200 30003KT P6SM SCT250
     FM051600 25005KT P6SM FEW050=



000
FTUS41 KPHI 050147 AAA
TAFTTN
TAF AMD
KTTN 050147Z 0502/0524 VRB03KT P6SM OVC035
     FM050400 VRB03KT P6SM SCT040 BKN150
     FM050600 VRB03KT P6SM FEW050 SCT250
      TEMPO 0509/0512 5SM BR
     FM051200 33003KT P6SM SCT250
     FM051600 24005KT P6SM FEW050=



000
FTUS41 KPHI 050146 AAA
TAFRDG
TAF AMD
KRDG 050146Z 0502/0524 VRB03KT P6SM OVC025
      TEMPO 0502/0504 SCT025 OVC035
     FM050400 VRB03KT P6SM SCT035 BKN150
     FM050600 VRB03KT P6SM FEW050 SCT250
      TEMPO 0509/0512 3SM BR
     FM051200 30003KT P6SM SCT250
     FM051600 26005KT P6SM FEW050=



000
FTUS41 KPHI 042359
TAFABE
TAF
KABE 042359Z 0500/0524 06005KT P6SM OVC035
     FM050200 VRB03KT P6SM SCT050 BKN150
     FM050500 VRB03KT P6SM FEW050 SCT250
      TEMPO 0509/0512 5SM BR
     FM051200 30003KT P6SM SCT250
     FM051600 25005KT P6SM FEW050=



000
FTUS41 KPHI 042359
TAFACY
TAF
KACY 042359Z 0500/0524 07008KT P6SM VCSH BKN040
     FM050200 06006KT P6SM BKN050
     FM050400 VRB03KT P6SM FEW050 SCT250
      TEMPO 0508/0512 5SM BR
     FM051200 01003KT P6SM SCT250
     FM051600 16006KT P6SM FEW050=



000
FTUS41 KPHI 042359
TAFPHL
TAF
KPHL 042359Z 0500/0606 06006KT P6SM VCSH OVC040
     FM050200 05006KT P6SM SCT050 BKN150
     FM050500 VRB03KT P6SM FEW050 SCT250
     FM051200 36003KT P6SM SCT250
     FM051600 23006KT P6SM FEW050=



000
FTUS41 KPHI 042359
TAFTTN
TAF
KTTN 042359Z 0500/0524 VRB03KT P6SM VCSH OVC040
     FM050200 VRB03KT P6SM SCT050 BKN150
     FM050500 VRB03KT P6SM FEW050 SCT250
      TEMPO 0509/0512 5SM BR
     FM051200 33003KT P6SM SCT250
     FM051600 24005KT P6SM FEW050=



000
FTUS41 KPHI 042359
TAFPNE
TAF
KPNE 042359Z 0500/0524 05006KT P6SM VCSH OVC040
     FM050200 05006KT P6SM SCT050 BKN150
     FM050500 VRB03KT P6SM FEW050 SCT250
     FM051200 36003KT P6SM SCT250
     FM051600 24006KT P6SM FEW050=



000
FTUS41 KPHI 042359
TAFRDG
TAF
KRDG 042359Z 0500/0524 VRB03KT P6SM SCT025 OVC040
      TEMPO 0500/0502 BKN025
     FM050200 VRB03KT P6SM SCT035 BKN150
     FM050500 VRB03KT P6SM FEW050 SCT250
      TEMPO 0509/0512 3SM BR
     FM051200 30003KT P6SM SCT250
     FM051600 26005KT P6SM FEW050=



000
FTUS41 KPHI 042359
TAFILG
TAF
KILG 042359Z 0500/0524 06008KT P6SM VCSH OVC040
     FM050200 05006KT P6SM SCT050 BKN150
     FM050500 VRB03KT P6SM FEW050 SCT250
     FM051200 01003KT P6SM SCT250
     FM051600 17006KT P6SM FEW050=



000
FTUS41 KPHI 042359
TAFMIV
TAF
KMIV 042359Z 0500/0524 VRB03KT P6SM VCSH OVC035
     FM050200 VRB03KT P6SM BKN050
     FM050400 VRB03KT P6SM FEW050 SCT250
      TEMPO 0508/0512 2SM BR
     FM051200 01003KT P6SM SCT250
     FM051600 16006KT P6SM FEW050=



000
FTUS41 KPHI 042056 AAA
TAFPHL
TAF AMD
KPHL 042056Z 0421/0524 06008KT P6SM VCSH FEW020 BKN050
     FM050000 06005KT P6SM BKN040
     FM050600 VRB03KT P6SM SCT050
     FM051200 36005KT P6SM SCT100=



000
FTUS41 KPHI 041901 AAA
TAFACY
TAF AMD
KACY 041901Z 0419/0518 06010KT P6SM SCT030 BKN060
     FM050000 04006KT P6SM BKN035
     FM050800 03004KT P6SM SCT040
      TEMPO 0508/0512 2SM BR
     FM051500 VRB03KT P6SM BKN050=



000
FTUS41 KPHI 041900 AAA
TAFMIV
TAF AMD
KMIV 041900Z 0419/0518 03008KT P6SM SCT030 BKN060
     FM050800 03004KT P6SM SCT040
      TEMPO 0508/0512 2SM BR
     FM051500 VRB03KT P6SM BKN050=



000
FTUS41 KPHI 041735
TAFTTN
TAF
KTTN 041735Z 0418/0518 03010KT P6SM SCT030 BKN070
      TEMPO 0418/0419 -SHRA
     FM050100 06005KT P6SM BKN040
     FM050600 00000KT P6SM SCT050
      TEMPO 0509/0512 5SM BR
     FM051200 VRB03KT P6SM SKC=



000
FTUS41 KPHI 041735
TAFRDG
TAF
KRDG 041735Z 0418/0518 03005KT P6SM OVC040
     FM050000 VRB03KT P6SM BKN050
      TEMPO 0509/0512 5SM BR
     FM051200 00000KT P6SM SKC=



000
FTUS41 KPHI 041735
TAFABE
TAF
KABE 041735Z 0418/0518 06010KT P6SM OVC035
     FM050000 VRB03KT P6SM BKN040
     FM050600 00000KT P6SM SCT050
     FM051200 00000KT P6SM SCT250=



000
FTUS41 KPHI 041735
TAFPHL
TAF
KPHL 041735Z 0418/0524 03010KT P6SM SCT030 OVC060
      TEMPO 0418/0419 -SHRA
     FM050100 06005KT P6SM BKN040
     FM050600 VRB03KT P6SM SCT050
     FM051200 36005KT P6SM SCT100=



000
FTUS41 KPHI 041735
TAFILG
TAF
KILG 041735Z 0418/0518 03010KT P6SM SCT030 OVC060
     FM050100 06005KT P6SM BKN040
     FM050600 VRB03KT P6SM SCT050
     FM051200 01005KT P6SM SCT100=



000
FTUS41 KPHI 041735
TAFPNE
TAF
KPNE 041735Z 0418/0518 04010KT P6SM SCT030 BKN070
      TEMPO 0418/0419 -SHRA
     FM050100 06005KT P6SM BKN040
     FM050600 00000KT P6SM SCT050
     FM051200 VRB03KT P6SM SKC=



000
FTUS41 KPHI 041735
TAFACY
TAF
KACY 041735Z 0418/0518 06010KT P6SM SCT030 BKN060
      TEMPO 0418/0420 3SM -SHRA BKN030
     FM050000 04006KT P6SM BKN035
     FM050800 03004KT P6SM SCT040
      TEMPO 0508/0512 2SM BR
     FM051500 VRB03KT P6SM BKN050=



000
FTUS41 KPHI 041735
TAFMIV
TAF
KMIV 041735Z 0418/0518 06008KT P6SM SCT030 BKN060
      TEMPO 0418/0420 3SM SHRA BKN030
     FM050000 04006KT P6SM BKN035
     FM050800 03004KT P6SM SCT040
      TEMPO 0508/0512 2SM BR
     FM051500 VRB03KT P6SM BKN050=



000
FTUS41 KPHI 041735
TAFTTN
TAF
KTTN 041735Z 0418/0518 03010KT P6SM SCT030 BKN070
      TEMPO 0418/0419 -SHRA
     FM050100 06005KT P6SM BKN040
     FM050600 00000KT P6SM SCT050
      TEMPO 0509/0512 5SM BR
     FM051200 VRB03KT P6SM SKC=



000
FTUS41 KPHI 041735
TAFRDG
TAF
KRDG 041735Z 0418/0518 03005KT P6SM OVC040
     FM050000 VRB03KT P6SM BKN050
      TEMPO 0509/0512 5SM BR
     FM051200 00000KT P6SM SKC=



000
FTUS41 KPHI 041735
TAFABE
TAF
KABE 041735Z 0418/0518 06010KT P6SM OVC035
     FM050000 VRB03KT P6SM BKN040
     FM050600 00000KT P6SM SCT050
     FM051200 00000KT P6SM SCT250=



000
FTUS41 KPHI 041500 AAA
TAFPHL
TAF AMD
KPHL 041500Z 0415/0518 04008KT P6SM SCT030 OVC060
      TEMPO 0415/0418 3SM -SHRA BR BKN030
     FM041900 04009KT 5SM BR BKN035
     FM050100 06007KT P6SM BKN040
     FM050600 34005KT P6SM SCT050
     FM051200 29005KT P6SM SKC=



000
FTUS41 KPHI 041458 AAA
TAFRDG
TAF AMD
KRDG 041458Z 0415/0512 05004KT 6SM -SHRA SCT015 OVC060
      TEMPO 0415/0417 3SM SHRA BR BKN015
     FM041800 03005KT P6SM OVC040
     FM050000 VRB03KT P6SM BKN050
     FM050600 VRB03KT P6SM SCT050=



000
FTUS41 KPHI 041457 AAA
TAFACY
TAF AMD
KACY 041457Z 0415/0512 06008KT P6SM SCT030 BKN060
      TEMPO 0417/0420 3SM -SHRA BKN030
     FM050000 04006KT P6SM BKN035
     FM050800 03004KT P6SM SCT040=



000
FTUS41 KPHI 041456 AAA
TAFILG
TAF AMD
KILG 041456Z 0415/0512 05008KT P6SM SCT030 OVC060
      TEMPO 0415/0418 3SM -SHRA BR BKN030
     FM041900 04009KT 5SM BR BKN035
     FM050100 06007KT P6SM BKN040
     FM050600 34005KT P6SM SCT050=



000
FTUS41 KPHI 041456 AAA
TAFILG
TAF AMD
KILG 041456Z 0415/0512 05008KT P6SM SCT030 OVC060
      TEMPO 0415/0418 3SM -SHRA BR BKN030
     FM041900 04009KT 5SM BR BKN035
     FM050100 06007KT P6SM BKN040
     FM050600 34005KT P6SM SCT050=



000
FTUS41 KPHI 041146 CCA
TAFRDG
TAF COR
KRDG 041146Z 0412/0512 05004KT 6SM -SHRA SCT015 OVC060
      TEMPO 0412/0416 3SM SHRA BR BKN015
     FM041800 03005KT P6SM OVC040
     FM050000 VRB03KT P6SM BKN050
     FM050600 VRB03KT P6SM SCT050=



000
FTUS41 KPHI 041135
TAFPHL
TAF
KPHL 041135Z 0412/0518 06007KT 6SM -SHRA SCT030 OVC060
      TEMPO 0414/0418 3SM SHRA BR BKN030
     FM041900 04009KT 5SM BR BKN035
     FM050100 06007KT P6SM BKN040
     FM050600 34005KT P6SM SCT050
     FM051200 29005KT P6SM SKC=



000
FTUS41 KPHI 041135
TAFILG
TAF
KILG 041135Z 0412/0512 07008KT 6SM -SHRA SCT030 OVC060
      TEMPO 0414/0418 3SM SHRA BR BKN030
     FM041900 04009KT 5SM BR BKN035
     FM050100 06007KT P6SM BKN040
     FM050600 34005KT P6SM SCT050=



000
FTUS41 KPHI 041135
TAFACY
TAF
KACY 041135Z 0412/0512 07006KT P6SM BKN100
     FM041400 06008KT 6SM -SHRA SCT030 BKN060
      TEMPO 0416/0420 3SM SHRA BKN030
     FM050000 04006KT P6SM BKN035
     FM050800 03004KT P6SM SCT040=



000
FTUS41 KPHI 041135
TAFTTN
TAF
KTTN 041135Z 0412/0512 06005KT P6SM SCT030 BKN070
      TEMPO 0414/0418 3SM SHRA BR BKN030
     FM041900 04009KT 5SM BR BKN035
     FM050100 06007KT P6SM BKN040
     FM050600 34005KT P6SM SCT050=



000
FTUS41 KPHI 041135
TAFABE
TAF
KABE 041135Z 0412/0512 10004KT 6SM -SHRA SCT025 OVC080
      TEMPO 0413/0417 3SM SHRA BR BKN025
     FM041800 06006KT P6SM OVC035
     FM050000 VRB04KT P6SM BKN040
     FM050600 VRB03KT P6SM SCT050=



000
FTUS41 KPHI 041135
TAFRDG
TAF
KRDG 041135Z 0412/0512 05004KT 6SM -SHRA SCT025 OVC060
      TEMPO 0413/0416 3SM SHRA BR BKN025
     FM041800 03005KT P6SM OVC040
     FM050000 VRB03KT P6SM BKN050
     FM050600 VRB03KT P6SM SCT050=



000
FTUS41 KPHI 041135
TAFPNE
TAF
KPNE 041135Z 0412/0512 06005KT P6SM SCT030 BKN070
      TEMPO 0414/0418 3SM SHRA BR BKN030
     FM041900 04009KT 5SM BR BKN035
     FM050100 06007KT P6SM BKN040
     FM050600 34005KT P6SM SCT050=



000
FTUS41 KPHI 041135
TAFPHL
TAF
KPHL 041135Z 0412/0518 06007KT 6SM -SHRA SCT030 OVC060
      TEMPO 0414/0418 3SM SHRA BR BKN030
     FM041900 04009KT 5SM BR BKN035
     FM050100 06007KT P6SM BKN040
     FM050600 34005KT P6SM SCT050
     FM051200 29005KT P6SM SKC=



000
FTUS41 KPHI 041135
TAFILG
TAF
KILG 041135Z 0412/0512 07008KT 6SM -SHRA SCT030 OVC060
      TEMPO 0414/0418 3SM SHRA BR BKN030
     FM041900 04009KT 5SM BR BKN035
     FM050100 06007KT P6SM BKN040
     FM050600 34005KT P6SM SCT050=



000
FTUS41 KPHI 041135
TAFMIV
TAF
KMIV 041135Z 0412/0512 06005KT P6SM BKN100
     FM041400 06008KT 6SM -SHRA SCT030 BKN060
      TEMPO 0416/0420 3SM SHRA BKN030
     FM050000 04006KT P6SM BKN035
     FM050800 03004KT P6SM SCT040=



000
FTUS41 KPHI 041135
TAFACY
TAF
KACY 041135Z 0412/0512 07006KT P6SM BKN100
     FM041400 06008KT 6SM -SHRA SCT030 BKN060
      TEMPO 0416/0420 3SM SHRA BKN030
     FM050000 04006KT P6SM BKN035
     FM050800 03004KT P6SM SCT040=



000
FTUS41 KPHI 041135
TAFRDG
TAF
KRDG 041135Z 0412/0512 05004KT 6SM -SHRA SCT025 OVC060
      TEMPO 0413/0416 3SM SHRA BR BKN025
     FM041800 03005KT P6SM OVC040
     FM050000 VRB03KT P6SM BKN050
     FM050600 VRB03KT P6SM SCT050=



000
FTUS41 KPHI 041135
TAFMIV
TAF
KMIV 041135Z 0412/0512 06005KT P6SM BKN100
     FM041400 06008KT 6SM -SHRA SCT030 BKN060
      TEMPO 0416/0420 3SM SHRA BKN030
     FM050000 04006KT P6SM BKN035
     FM050800 03004KT P6SM SCT040=



000
FTUS41 KPHI 041135
TAFPNE
TAF
KPNE 041135Z 0412/0512 06005KT P6SM SCT030 BKN070
      TEMPO 0414/0418 3SM SHRA BR BKN030
     FM041900 04009KT 5SM BR BKN035
     FM050100 06007KT P6SM BKN040
     FM050600 34005KT P6SM SCT050=



000
FTUS41 KPHI 041135
TAFTTN
TAF
KTTN 041135Z 0412/0512 06005KT P6SM SCT030 BKN070
      TEMPO 0414/0418 3SM SHRA BR BKN030
     FM041900 04009KT 5SM BR BKN035
     FM050100 06007KT P6SM BKN040
     FM050600 34005KT P6SM SCT050=



000
FTUS41 KPHI 041135
TAFABE
TAF
KABE 041135Z 0412/0512 10004KT 6SM -SHRA SCT025 OVC080
      TEMPO 0413/0417 3SM SHRA BR BKN025
     FM041800 06006KT P6SM OVC035
     FM050000 VRB04KT P6SM BKN040
     FM050600 VRB03KT P6SM SCT050=



000
FTUS41 KPHI 040919 AAA
TAFPHL
TAF AMD
KPHL 040919Z 0409/0512 12006KT P6SM BKN070
     FM041200 07007KT 6SM -SHRA SCT025 OVC050
      TEMPO 0414/0418 3SM SHRA OVC025
     FM041900 04009KT 5SM BR OVC030
     FM050100 06007KT P6SM BKN040
     FM050600 34005KT P6SM SCT050=



000
FTUS41 KPHI 040545
TAFRDG
TAF
KRDG 040545Z 0406/0506 16006KT P6SM BKN100
     FM040800 08004KT 6SM -SHRA SCT025 OVC080
      TEMPO 0412/0416 3SM SHRA BR BKN025
     FM041800 05006KT P6SM BKN040
     FM050000 VRB03KT P6SM SCT050=



000
FTUS41 KPHI 040545
TAFACY
TAF
KACY 040545Z 0406/0506 13005KT P6SM BKN100
     FM041000 09005KT 6SM -SHRA BR SCT025 OVC070
     FM041300 07008KT 5SM -SHRA BR OVC030
      TEMPO 0416/0420 2SM SHRA OVC020
     FM042200 04008KT P6SM OVC025=



000
FTUS41 KPHI 040545
TAFMIV
TAF
KMIV 040545Z 0406/0506 VRB03KT P6SM BKN100
     FM040700 10003KT 6SM -SHRA SCT025 OVC070
     FM041300 08006KT 5SM -SHRA OVC030
      TEMPO 0416/0420 2SM SHRA OVC020
     FM042200 04008KT P6SM OVC025=



000
FTUS41 KPHI 040545
TAFILG
TAF
KILG 040545Z 0406/0506 12005KT P6SM SCT050 BKN100
     FM041000 07007KT 6SM -SHRA SCT025 OVC050
      TEMPO 0414/0418 3SM SHRA OVC025
     FM041900 04009KT 5SM BR OVC030
     FM050100 06007KT P6SM BKN040=



000
FTUS41 KPHI 040545
TAFTTN
TAF
KTTN 040545Z 0406/0506 18004KT P6SM BKN100
     FM041000 07007KT 6SM -SHRA SCT025 OVC050
      TEMPO 0414/0418 3SM SHRA OVC025
     FM041900 04009KT 5SM BR OVC030
     FM050100 06007KT P6SM BKN040=



000
FTUS41 KPHI 040545
TAFABE
TAF
KABE 040545Z 0406/0506 16004KT P6SM BKN100
     FM040900 10004KT 6SM -SHRA SCT030 OVC080
      TEMPO 0412/0416 3SM SHRA BR BKN025
     FM041800 06006KT P6SM BKN040
     FM050000 VRB04KT P6SM SCT050=



000
FTUS41 KPHI 040545
TAFPHL
TAF
KPHL 040545Z 0406/0512 12006KT P6SM SCT050 BKN100
     FM041000 07007KT 6SM -SHRA SCT025 OVC050
      TEMPO 0414/0418 3SM SHRA OVC025
     FM041900 04009KT 5SM BR OVC030
     FM050100 06007KT P6SM BKN040
     FM050600 34005KT P6SM SCT050=



000
FTUS41 KPHI 040545
TAFPNE
TAF
KPNE 040545Z 0406/0506 15005KT P6SM BKN100
     FM041000 07007KT 6SM -SHRA SCT025 OVC050
      TEMPO 0414/0418 3SM SHRA OVC025
     FM041900 04009KT 5SM BR OVC030
     FM050100 06007KT P6SM BKN040=



000
FTUS41 KPHI 032335
TAFRDG
TAF
KRDG 032335Z 0400/0424 16006KT P6SM BKN100
     FM040800 08004KT 6SM -SHRA SCT025 OVC080
     FM041600 05006KT P6SM BKN050
     FM042200 15005KT P6SM SCT050=



000
FTUS41 KPHI 032335
TAFTTN
TAF
KTTN 032335Z 0400/0424 18004KT P6SM BKN100
     FM040800 09004KT 6SM -SHRA SCT030 OVC080
      TEMPO 0413/0416 3SM SHRA OVC030
     FM041800 06008KT P6SM BKN050
     FM042300 09006KT P6SM SCT050=



000
FTUS41 KPHI 032335
TAFILG
TAF
KILG 032335Z 0400/0424 VRB05KT P6SM BKN070
     FM040700 07006KT 6SM -SHRA SCT025 OVC060
      TEMPO 0413/0416 3SM SHRA OVC030
     FM041800 04009KT P6SM BKN050
     FM042300 10006KT P6SM SCT050=



000
FTUS41 KPHI 032335
TAFMIV
TAF
KMIV 032335Z 0400/0424 14004KT P6SM BKN100
     FM040700 10003KT 6SM -SHRA SCT025 OVC070
     FM041300 08006KT 3SM SHRA OVC025
     FM041900 06008KT P6SM BKN050
     FM042300 10006KT P6SM SCT050=



000
FTUS41 KPHI 032335
TAFPHL
TAF
KPHL 032335Z 0400/0506 16007KT P6SM BKN100
     FM040700 07007KT 6SM -SHRA SCT025 OVC080
      TEMPO 0413/0416 3SM SHRA OVC030
     FM041800 04009KT P6SM BKN050
     FM042300 10005KT P6SM SCT050=



000
FTUS41 KPHI 032335
TAFABE
TAF
KABE 032335Z 0400/0424 16004KT P6SM BKN100
     FM040900 10004KT 6SM -SHRA SCT030 OVC080
     FM041600 06006KT P6SM BKN050
     FM042200 13004KT P6SM SCT050=



000
FTUS41 KPHI 032335
TAFPNE
TAF
KPNE 032335Z 0400/0424 15005KT P6SM BKN050
     FM040800 09005KT 6SM -SHRA SCT030 OVC080
      TEMPO 0413/0416 3SM SHRA OVC030
     FM041800 05009KT P6SM BKN050
     FM042300 10005KT P6SM SCT050=



000
FTUS41 KPHI 032335
TAFACY
TAF
KACY 032335Z 0400/0424 16004KT P6SM BKN100
     FM040700 10004KT 6SM -SHRA BR SCT025 OVC070
     FM041300 07008KT 3SM SHRA BR OVC020
     FM042000 08008KT P6SM OVC025=



000
FTUS41 KPHI 032036 AAA
TAFPHL
TAF AMD
KPHL 032036Z 0321/0424 16007KT P6SM SCT050
     FM041000 07006KT 5SM -RA SCT025 OVC080
     FM041500 04010KT 2SM SHRA BR OVC025
     FM042000 04005KT P6SM BKN060=



000
FTUS41 KPHI 031721
TAFPNE
TAF
KPNE 031721Z 0318/0418 VRB05KT P6SM BKN050
     FM041100 09005KT 5SM -RA SCT030 OVC080
     FM041600 05009KT 4SM -RA BR OVC025
      AMD NOT SKED=



000
FTUS41 KPHI 031721
TAFACY
TAF
KACY 031721Z 0318/0418 VRB04KT P6SM SCT050
     FM040900 10004KT 5SM SHRA BR SCT025 OVC070
     FM041300 07010KT 2SM SHRA BR OVC025=



000
FTUS41 KPHI 031721
TAFMIV
TAF
KMIV 031721Z 0318/0418 VRB04KT P6SM SCT050
     FM040900 10003KT 5SM SHRA SCT025 OVC070
     FM041400 06008KT 2SM SHRA BR OVC025=



000
FTUS41 KPHI 031721
TAFTTN
TAF
KTTN 031721Z 0318/0418 VRB04KT P6SM FEW040
     FM041200 07004KT 5SM -RA SCT030 OVC080=



000
FTUS41 KPHI 031721
TAFPHL
TAF
KPHL 031721Z 0318/0424 13008KT P6SM SCT050
     FM041000 07006KT 5SM -RA SCT025 OVC080
     FM041500 04010KT 2SM SHRA BR OVC025
     FM042000 04005KT P6SM BKN060=



000
FTUS41 KPHI 031721
TAFABE
TAF
KABE 031721Z 0318/0418 VRB04KT P6SM FEW040
     FM041200 09004KT 5SM -RA SCT030 OVC080
     FM041600 04007KT P6SM BKN070=



000
FTUS41 KPHI 031721
TAFRDG
TAF
KRDG 031721Z 0318/0418 VRB04KT P6SM SCT040
     FM032200 18006KT P6SM BKN200
     FM040800 08004KT 5SM -RA SCT025 OVC080
     FM041600 05006KT P6SM BKN070=



000
FTUS41 KPHI 031721
TAFILG
TAF
KILG 031721Z 0318/0418 VRB05KT P6SM SCT050
     FM041000 07006KT 5SM -SHRA SCT025 OVC060
     FM041500 04009KT 2SM SHRA BR OVC025=



000
FTUS41 KPHI 031721
TAFACY
TAF
KACY 031721Z 0318/0418 VRB04KT P6SM SCT050
     FM040900 10004KT 5SM SHRA BR SCT025 OVC070
     FM041300 07010KT 2SM SHRA BR OVC025=



000
FTUS41 KPHI 031721
TAFPNE
TAF
KPNE 031721Z 0318/0418 VRB05KT P6SM BKN050
     FM041100 09005KT 5SM -RA SCT030 OVC080
     FM041600 05009KT 4SM -RA BR OVC025
      AMD NOT SKED=



000
FTUS41 KPHI 031721
TAFMIV
TAF
KMIV 031721Z 0318/0418 VRB04KT P6SM SCT050
     FM040900 10003KT 5SM SHRA SCT025 OVC070
     FM041400 06008KT 2SM SHRA BR OVC025=



000
FTUS41 KPHI 031721
TAFTTN
TAF
KTTN 031721Z 0318/0418 VRB04KT P6SM FEW040
     FM041200 07004KT 5SM -RA SCT030 OVC080=



000
FTUS41 KPHI 031721
TAFPHL
TAF
KPHL 031721Z 0318/0424 13008KT P6SM SCT050
     FM041000 07006KT 5SM -RA SCT025 OVC080
     FM041500 04010KT 2SM SHRA BR OVC025
     FM042000 04005KT P6SM BKN060=



000
FTUS41 KPHI 031721
TAFABE
TAF
KABE 031721Z 0318/0418 VRB04KT P6SM FEW040
     FM041200 09004KT 5SM -RA SCT030 OVC080
     FM041600 04007KT P6SM BKN070=



000
FTUS41 KPHI 031721
TAFRDG
TAF
KRDG 031721Z 0318/0418 VRB04KT P6SM SCT040
     FM032200 18006KT P6SM BKN200
     FM040800 08004KT 5SM -RA SCT025 OVC080
     FM041600 05006KT P6SM BKN070=



000
FTUS41 KPHI 031721
TAFILG
TAF
KILG 031721Z 0318/0418 VRB05KT P6SM SCT050
     FM041000 07006KT 5SM -SHRA SCT025 OVC060
     FM041500 04009KT 2SM SHRA BR OVC025=



000
FTUS41 KPHI 031633 AAB
TAFACY
TAF AMD
KACY 031633Z 0317/0412 05004KT P6SM SCT050 BKN250
     FM031800 13006KT P6SM BKN050
     FM040900 10004KT 5SM BR SCT025 OVC100=



000
FTUS41 KPHI 031633 AAB
TAFACY
TAF AMD
KACY 031633Z 0317/0412 05004KT P6SM SCT050 BKN250
     FM031800 13006KT P6SM BKN050
     FM040900 10004KT 5SM BR SCT025 OVC100=



000
FTUS41 KPHI 031440 AAA
TAFPHL
TAF AMD
KPHL 031440Z 0315/0418 09006KT P6SM SCT060 BKN250
     FM031800 15008KT P6SM BKN050
     FM041000 07006KT 5SM -RA BKN025 OVC100
     FM041500 06010KT 2SM SHRA BR OVC015=



000
FTUS41 KPHI 031435 AAA
TAFACY
TAF AMD
KACY 031435Z 0315/0412 05004KT P6SM SCT050 BKN250
      TEMPO 0315/0318 BKN015 OVC250
     FM031800 13006KT P6SM BKN050
     FM040900 10004KT 5SM BR SCT025 OVC100=



000
FTUS41 KPHI 031306 AAA
TAFMIV
TAF AMD
KMIV 031306Z 0313/0412 05004KT P6SM SCT050 BKN250
     FM031800 13006KT P6SM BKN050
     FM040500 10003KT 5SM BR SCT025 OVC100=



000
FTUS41 KPHI 031306 AAA
TAFMIV
TAF AMD
KMIV 031306Z 0313/0412 05004KT P6SM SCT050 BKN250
     FM031800 13006KT P6SM BKN050
     FM040500 10003KT 5SM BR SCT025 OVC100=



000
FTUS41 KPHI 031259 AAA
TAFILG
TAF AMD
KILG 031259Z 0313/0412 05005KT P6SM SCT060 BKN250
     FM031800 15008KT P6SM BKN050
     FM041000 10006KT 5SM -SHRA BKN025 OVC050=



000
FTUS41 KPHI 031259 AAA
TAFILG
TAF AMD
KILG 031259Z 0313/0412 05005KT P6SM SCT060 BKN250
     FM031800 15008KT P6SM BKN050
     FM041000 10006KT 5SM -SHRA BKN025 OVC050=



000
FTUS41 KPHI 031124
TAFILG
TAF
KILG 031124Z 0312/0412 VRB03KT 5SM BR SCT250
     FM031400 05005KT P6SM SCT060 BKN250
     FM031800 15008KT P6SM BKN050
     FM041000 10006KT 5SM -SHRA BKN025 OVC050=



000
FTUS41 KPHI 031124
TAFACY
TAF
KACY 031124Z 0312/0412 00000KT 4SM BR SCT250
     FM031300 05004KT P6SM SCT050 BKN250
     FM031800 13006KT P6SM BKN050
     FM040900 10004KT 5SM BR SCT025 OVC100=



000
FTUS41 KPHI 031124
TAFMIV
TAF
KMIV 031124Z 0312/0412 VRB03KT 3SM BR BKN250
     FM031500 05004KT P6SM SCT050 BKN250
     FM031800 13006KT P6SM BKN050
     FM040500 10003KT 5SM BR SCT025 OVC100=



000
FTUS41 KPHI 031124
TAFABE
TAF
KABE 031124Z 0312/0412 VRB03KT P6SM SCT250
     FM031400 04004KT P6SM SCT040 BKN250
     FM031800 18005KT P6SM BKN040
     FM041000 09004KT 5SM -SHRA BKN050 OVC100=



000
FTUS41 KPHI 031124
TAFPHL
TAF
KPHL 031124Z 0312/0418 VRB03KT P6SM SCT250
     FM031400 07005KT P6SM SCT060 BKN250
     FM031800 16008KT P6SM BKN050
     FM040900 10006KT P6SM -SHRA BKN050 OVC100
     FM041200 10010KT 4SM SHRA BKN025 OVC050
     FM041500 06010KT 2SM SHRA BR OVC015=



000
FTUS41 KPHI 031124
TAFRDG
TAF
KRDG 031124Z 0312/0412 VRB03KT P6SM SCT250
     FM031500 05004KT P6SM SCT040 BKN250
     FM031800 18005KT P6SM BKN040
     FM040900 10004KT 5SM -SHRA BKN025 OVC050=



000
FTUS41 KPHI 031124
TAFPNE
TAF
KPNE 031124Z 0312/0412 01006KT P6SM SCT250
     FM031400 07004KT P6SM SCT060 BKN250
     FM031800 16006KT P6SM BKN050
     FM041000 09005KT 5SM -SHRA BKN050 OVC100
      AMD NOT SKED=



000
FTUS41 KPHI 031124
TAFTTN
TAF
KTTN 031124Z 0312/0412 VRB03KT P6SM SCT250
     FM031400 04004KT P6SM SCT040 BKN250
     FM031700 16006KT P6SM BKN040
     FM041000 11004KT 5SM -SHRA BKN050 OVC100=



000
FTUS41 KPHI 030954 AAC
TAFMIV
TAF AMD
KMIV 030954Z 0310/0406 00000KT 1/2SM FG SCT250
     FM031400 VRB03KT 3SM BR BKN250
     FM031500 12006KT P6SM FEW020 BKN250=



000
FTUS41 KPHI 030954 AAC
TAFMIV
TAF AMD
KMIV 030954Z 0310/0406 00000KT 1/2SM FG SCT250
     FM031400 VRB03KT 3SM BR BKN250
     FM031500 12006KT P6SM FEW020 BKN250=



000
FTUS41 KPHI 030953 AAB
TAFACY
TAF AMD
KACY 030953Z 0310/0406 00000KT 4SM BR SCT250
      TEMPO 0310/0312 2SM BR
     FM031300 06004KT 5SM BR BKN250
     FM031400 13007KT P6SM FEW020 BKN250=



000
FTUS41 KPHI 030856 AAA
TAFACY
TAF AMD
KACY 030856Z 0309/0406 00000KT 4SM BR SCT250
      TEMPO 0309/0312 2SM BR
     FM031300 06004KT 5SM BR BKN009 BKN250
     FM031400 13007KT P6SM FEW020 BKN250=



000
FTUS41 KPHI 030856 AAA
TAFACY
TAF AMD
KACY 030856Z 0309/0406 00000KT 4SM BR SCT250
      TEMPO 0309/0312 2SM BR
     FM031300 06004KT 5SM BR BKN009 BKN250
     FM031400 13007KT P6SM FEW020 BKN250=



000
FTUS41 KPHI 030845 AAB
TAFRDG
TAF AMD
KRDG 030845Z 0309/0406 34004KT P6SM BKN200
     FM031000 36003KT 5SM BR BKN200
     FM031300 05004KT P6SM SCT040 BKN200
     FM031800 18005KT P6SM BKN040=



000
FTUS41 KPHI 030842 AAA
TAFPNE
TAF AMD
KPNE 030842Z 0309/0406 01006KT P6SM SCT200
     FM031000 02005KT 6SM BR SCT200
     FM031200 07004KT P6SM BKN060
     FM031800 16006KT P6SM BKN050
      AMD NOT SKED=



000
FTUS41 KPHI 030842 AAA
TAFPNE
TAF AMD
KPNE 030842Z 0309/0406 01006KT P6SM SCT200
     FM031000 02005KT 6SM BR SCT200
     FM031200 07004KT P6SM BKN060
     FM031800 16006KT P6SM BKN050
      AMD NOT SKED=



000
FTUS41 KPHI 030840 AAA
TAFPHL
TAF AMD
KPHL 030840Z 0309/0412 VRB03KT P6SM SCT200
     FM031000 VRB03KT 6SM BR SCT200
     FM031200 07005KT P6SM SCT060 BKN200
     FM031800 16008KT P6SM SCT050 BKN200
     FM040900 09006KT P6SM -SHRA BKN050 OVC100=



000
FTUS41 KPHI 030835 AAB
TAFMIV
TAF AMD
KMIV 030835Z 0309/0406 00000KT 1/2SM FG SCT005
     FM031400 VRB03KT 3SM BR BKN010 BKN250
     FM031500 12006KT P6SM FEW020 BKN250=



000
FTUS41 KPHI 030800 AAA
TAFMIV
TAF AMD
KMIV 030800Z 0308/0406 00000KT 2SM BR SCT005
     FM031400 VRB03KT 3SM BR BKN010 BKN250
     FM031500 12006KT P6SM FEW020 BKN250=



000
FTUS41 KPHI 030714 AAA
TAFRDG
TAF AMD
KRDG 030714Z 0307/0406 VRB02KT 2SM BR FEW003 BKN200
     FM031300 05004KT P6SM SCT040 BKN200
     FM031800 18005KT P6SM BKN040=



000
FTUS41 KPHI 030714 AAA
TAFRDG
TAF AMD
KRDG 030714Z 0307/0406 VRB02KT 2SM BR FEW003 BKN200
     FM031300 05004KT P6SM SCT040 BKN200
     FM031800 18005KT P6SM BKN040=



000
FTUS41 KPHI 030706 AAA
TAFTTN
TAF AMD
KTTN 030706Z 0307/0406 VRB03KT 4SM BR SCT070 BKN200
     FM031200 05004KT P6SM SCT060 BKN200
     FM031700 16006KT P6SM BKN040=



000
FTUS41 KPHI 030706 AAA
TAFTTN
TAF AMD
KTTN 030706Z 0307/0406 VRB03KT 4SM BR SCT070 BKN200
     FM031200 05004KT P6SM SCT060 BKN200
     FM031700 16006KT P6SM BKN040=



000
FTUS41 KPHI 030523 CCA
TAFMIV
TAF COR
KMIV 030523Z 0305/0406 00000KT 1/2SM FG OVC005
     FM031400 VRB03KT 3SM BR BKN010 BKN250
     FM031500 12006KT P6SM FEW020 BKN250=



000
FTUS41 KPHI 030523 CCA
TAFMIV
TAF COR
KMIV 030523Z 0305/0406 00000KT 1/2SM FG OVC005
     FM031400 VRB03KT 3SM BR BKN010 BKN250
     FM031500 12006KT P6SM FEW020 BKN250=



000
FTUS41 KPHI 030520
TAFILG
TAF
KILG 030520Z 0306/0406 VRB03KT 5SM BR SCT060 BKN200
     FM031200 05005KT P6SM SCT060 BKN200
     FM031800 15008KT P6SM BKN050 BKN150=



000
FTUS41 KPHI 030520
TAFMIV
TAF
KMIV 030520Z 0306/0406 00000KT 1/2SM FG OVC006
     FM031400 VRB03KT 3SM BR BKN010 BKN250
     FM031500 12006KT P6SM FEW020 BKN250=



000
FTUS41 KPHI 030520
TAFPNE
TAF
KPNE 030520Z 0306/0406 VRB03KT P6SM BKN070
     FM030900 VRB03KT 6SM BR SCT060 BKN200
     FM031200 07004KT P6SM BKN060
     FM031800 16006KT P6SM BKN050=



000
FTUS41 KPHI 030520
TAFTTN
TAF
KTTN 030520Z 0306/0406 VRB03KT P6SM BKN070
     FM030800 VRB03KT 4SM BR SCT060 BKN200
     FM031200 05004KT P6SM SCT060 BKN200
     FM031700 16006KT P6SM BKN040=



000
FTUS41 KPHI 030520
TAFABE
TAF
KABE 030520Z 0306/0406 00000KT P6SM SCT060 BKN200
     FM030900 VRB03KT 6SM BR SCT060 BKN200
     FM031200 04004KT P6SM SCT040 BKN200
     FM031700 18005KT P6SM BKN040=



000
FTUS41 KPHI 030520
TAFACY
TAF
KACY 030520Z 0306/0406 00000KT 4SM BR SCT070 OVC090
     FM030800 VRB03KT 1SM BR OVC006
     FM031300 06004KT 5SM BR BKN009 BKN250
     FM031400 13007KT P6SM FEW020 BKN250=



000
FTUS41 KPHI 030520
TAFRDG
TAF
KRDG 030520Z 0306/0406 00000KT P6SM SCT060 BKN200
     FM030800 VRB02KT 6SM BR SCT060 BKN200
     FM031200 05004KT P6SM SCT040 BKN200
     FM031800 18005KT P6SM BKN040=



000
FTUS41 KPHI 030520
TAFPHL
TAF
KPHL 030520Z 0306/0412 VRB03KT P6SM SCT070 BKN200
     FM030900 VRB03KT 6SM BR SCT070 BKN200
     FM031200 07005KT P6SM SCT060 BKN200
     FM031800 16008KT P6SM SCT050 BKN200
     FM040900 09006KT P6SM -SHRA BKN050 OVC100=



000
FTUS41 KPHI 030405 AAA
TAFACY
TAF AMD
KACY 030405Z 0304/0324 VRB03KT 4SM BR SCT070 BKN090
     FM030800 VRB03KT 1SM BR OVC006
     FM031300 04004KT 5SM BR BKN009 BKN250
     FM031500 10006KT 6SM HZ FEW020 BKN250=



000
FTUS41 KPHI 030357 AAA
TAFILG
TAF AMD
KILG 030357Z 0304/0324 VRB03KT 5SM BR SCT060 BKN150
     FM031200 05005KT P6SM BKN040
     FM031800 12009KT P6SM BKN040 BKN150=



000
FTUS41 KPHI 030247 AAB
TAFMIV
TAF AMD
KMIV 030247Z 0303/0324 00000KT 1/2SM FG BKN008
     FM031400 VRB03KT 3SM BR BKN010 BKN250
     FM031500 11006KT P6SM FEW020 BKN250=



000
FTUS41 KPHI 030247 AAB
TAFMIV
TAF AMD
KMIV 030247Z 0303/0324 00000KT 1/2SM FG BKN008
     FM031400 VRB03KT 3SM BR BKN010 BKN250
     FM031500 11006KT P6SM FEW020 BKN250=



000
FTUS41 KPHI 030224 AAA
TAFMIV
TAF AMD
KMIV 030224Z 0302/0324 VRB03KT 1SM BR SCT100
      TEMPO 0308/0312 BKN009
     FM031300 06003KT P6SM BKN010 BKN250
     FM031500 11006KT P6SM FEW020 BKN250=



000
FTUS41 KPHI 030224 AAA
TAFTTN
TAF AMD
KTTN 030224Z 0302/0324 VRB02KT 4SM BR SCT030 BKN180
     FM031200 08004KT P6SM BKN040
     FM031800 13008KT P6SM SCT040 BKN200=



000
FTUS41 KPHI 022343
TAFPHL
TAF
KPHL 022343Z 0300/0406 18003KT 6SM -RA SCT025 OVC060
     FM030100 VRB03KT P6SM SCT050 OVC090
     FM030900 VRB02KT 6SM BR SCT025 BKN150
     FM031200 07005KT P6SM BKN040
     FM031800 12009KT P6SM SCT040 BKN150
     FM040200 09004KT P6SM OVC090=



000
FTUS41 KPHI 022343
TAFRDG
TAF
KRDG 022343Z 0300/0324 23003KT P6SM SCT080 OVC120
     FM030800 VRB02KT 6SM BR BKN180
     FM031300 12005KT P6SM FEW025 BKN040=



000
FTUS41 KPHI 022343
TAFABE
TAF
KABE 022343Z 0300/0324 VRB02KT P6SM BKN050 OVC100
     FM030900 VRB02KT 6SM BR BKN180
     FM031300 12006KT P6SM BKN040=



000
FTUS41 KPHI 022343
TAFPNE
TAF
KPNE 022343Z 0300/0324 17003KT 6SM -RA SCT040 OVC080
     FM030100 VRB02KT P6SM SCT070 OVC110
     FM030900 VRB02KT 6SM BR SCT030 BKN180
     FM031200 07004KT P6SM BKN040
     FM031800 12008KT P6SM SCT040 BKN150=



000
FTUS41 KPHI 022343
TAFMIV
TAF
KMIV 022343Z 0300/0324 VRB03KT 5SM BR FEW009 OVC070
      TEMPO 0303/0306 BKN009
     FM030600 00000KT 2SM BR OVC007
     FM031300 06003KT P6SM BKN010 BKN250
     FM031500 11006KT P6SM FEW020 BKN250=



000
FTUS41 KPHI 022343
TAFACY
TAF
KACY 022343Z 0300/0324 VRB03KT 4SM BR OVC006
     FM030400 02002KT 3SM BR OVC003
     FM031300 04004KT 5SM BR BKN009 BKN250
     FM031500 10006KT 6SM HZ FEW020 BKN250=



000
FTUS41 KPHI 022343
TAFTTN
TAF
KTTN 022343Z 0300/0324 00000KT 5SM -RA SCT030 OVC060
     FM030130 VRB02KT P6SM SCT060 OVC100
     FM030900 VRB02KT 4SM BR SCT030 BKN180
     FM031200 08004KT P6SM BKN040
     FM031800 13008KT P6SM SCT040 BKN200=



000
FTUS41 KPHI 022343
TAFILG
TAF
KILG 022343Z 0300/0324 VRB02KT P6SM OVC090
     FM030900 VRB02KT 6SM BR SCT030 BKN150
     FM031200 05005KT P6SM BKN040
     FM031800 12009KT P6SM BKN040 BKN150=



000
FTUS41 KPHI 022343
TAFPHL
TAF
KPHL 022343Z 0300/0406 18003KT 6SM -RA SCT025 OVC060
     FM030100 VRB03KT P6SM SCT050 OVC090
     FM030900 VRB02KT 6SM BR SCT025 BKN150
     FM031200 07005KT P6SM BKN040
     FM031800 12009KT P6SM SCT040 BKN150
     FM040200 09004KT P6SM OVC090=



000
FTUS41 KPHI 022343
TAFABE
TAF
KABE 022343Z 0300/0324 VRB02KT P6SM BKN050 OVC100
     FM030900 VRB02KT 6SM BR BKN180
     FM031300 12006KT P6SM BKN040=



000
FTUS41 KPHI 022343
TAFRDG
TAF
KRDG 022343Z 0300/0324 23003KT P6SM SCT080 OVC120
     FM030800 VRB02KT 6SM BR BKN180
     FM031300 12005KT P6SM FEW025 BKN040=



000
FTUS41 KPHI 022343
TAFPNE
TAF
KPNE 022343Z 0300/0324 17003KT 6SM -RA SCT040 OVC080
     FM030100 VRB02KT P6SM SCT070 OVC110
     FM030900 VRB02KT 6SM BR SCT030 BKN180
     FM031200 07004KT P6SM BKN040
     FM031800 12008KT P6SM SCT040 BKN150=



000
FTUS41 KPHI 022343
TAFILG
TAF
KILG 022343Z 0300/0324 VRB02KT P6SM OVC090
     FM030900 VRB02KT 6SM BR SCT030 BKN150
     FM031200 05005KT P6SM BKN040
     FM031800 12009KT P6SM BKN040 BKN150=



000
FTUS41 KPHI 022343
TAFACY
TAF
KACY 022343Z 0300/0324 VRB03KT 4SM BR OVC006
     FM030400 02002KT 3SM BR OVC003
     FM031300 04004KT 5SM BR BKN009 BKN250
     FM031500 10006KT 6SM HZ FEW020 BKN250=



000
FTUS41 KPHI 022343
TAFTTN
TAF
KTTN 022343Z 0300/0324 00000KT 5SM -RA SCT030 OVC060
     FM030130 VRB02KT P6SM SCT060 OVC100
     FM030900 VRB02KT 4SM BR SCT030 BKN180
     FM031200 08004KT P6SM BKN040
     FM031800 13008KT P6SM SCT040 BKN200=



000
FTUS41 KPHI 022343
TAFMIV
TAF
KMIV 022343Z 0300/0324 VRB03KT 5SM BR FEW009 OVC070
      TEMPO 0303/0306 BKN009
     FM030600 00000KT 2SM BR OVC007
     FM031300 06003KT P6SM BKN010 BKN250
     FM031500 11006KT P6SM FEW020 BKN250=



000
FTUS41 KPHI 022111 AAB
TAFACY
TAF AMD
KACY 022111Z 0221/0318 36004KT 2SM -RA BKN005 OVC025
     FM022200 VRB03KT 3SM BR BKN008 OVC050
     FM030000 VRB02KT 6SM BR SCT005 BKN200
     FM030200 02002KT 3SM BR BKN200
     FM030600 01003KT 2SM BR BKN200
     FM031300 06005KT 5SM BR BKN200=



000
FTUS41 KPHI 022104 AAA
TAFMIV
TAF AMD
KMIV 022104Z 0221/0318 VRB03KT 4SM BR OVC060
     FM022200 VRB03KT 6SM BR BKN050 BKN150
     FM030200 VRB02KT 3SM BR SCT015 BKN200
     FM031400 07005KT P6SM BKN200=



000
FTUS41 KPHI 022056 AAB
TAFPHL
TAF AMD
KPHL 022056Z 0221/0324 VRB04KT P6SM FEW025 OVC100
     FM030900 03004KT 6SM BR BKN150
     FM031200 07006KT P6SM BKN150=



000
FTUS41 KPHI 022056 AAB
TAFPHL
TAF AMD
KPHL 022056Z 0221/0324 VRB04KT P6SM FEW025 OVC100
     FM030900 03004KT 6SM BR BKN150
     FM031200 07006KT P6SM BKN150=



000
FTUS41 KPHI 021944 AAA
TAFILG
TAF AMD
KILG 021944Z 0220/0318 06005KT P6SM SCT050 OVC100
      TEMPO 0221/0223 6SM -SHRA BKN050
     FM030100 15005KT P6SM SCT050 BKN150
     FM030900 VRB02KT 6SM BR BKN150
     FM031300 06006KT P6SM SCT150=



000
FTUS41 KPHI 021853 AAA
TAFPHL
TAF AMD
KPHL 021853Z 0219/0324 06005KT P6SM FEW050 BKN100
     FM030000 12004KT P6SM BKN250
     FM030900 03004KT 6SM BR BKN150
     FM031200 07006KT P6SM BKN150=



000
FTUS41 KPHI 021843 AAA
TAFACY
TAF AMD
KACY 021843Z 0219/0318 05005KT P6SM SCT050 OVC090
      TEMPO 0219/0221 1SM SHRA BKN006
     FM030100 VRB02KT P6SM BKN200
     FM030400 02002KT 3SM BR BKN200
     FM030900 01003KT 2SM BR BKN200
     FM031300 06005KT 5SM BR BKN200=



000
FTUS41 KPHI 021843 AAA
TAFACY
TAF AMD
KACY 021843Z 0219/0318 05005KT P6SM SCT050 OVC090
      TEMPO 0219/0221 1SM SHRA BKN006
     FM030100 VRB02KT P6SM BKN200
     FM030400 02002KT 3SM BR BKN200
     FM030900 01003KT 2SM BR BKN200
     FM031300 06005KT 5SM BR BKN200=



000
FTUS41 KPHI 021721
TAFPHL
TAF
KPHL 021721Z 0218/0324 06005KT P6SM FEW050 BKN100
      TEMPO 0218/0220 5SM SHRA BKN050
     FM030000 12004KT P6SM BKN250
     FM030900 03004KT 6SM BR BKN150
     FM031200 07006KT P6SM BKN150=



000
FTUS41 KPHI 021721
TAFPHL
TAF
KPHL 021721Z 0218/0324 06005KT P6SM FEW050 BKN100
      TEMPO 0218/0220 5SM SHRA BKN050
     FM030000 12004KT P6SM BKN250
     FM030900 03004KT 6SM BR BKN150
     FM031200 07006KT P6SM BKN150=



000
FTUS41 KPHI 021721
TAFACY
TAF
KACY 021721Z 0218/0318 05005KT P6SM SCT050 OVC090
      TEMPO 0218/0221 2SM -TSRA BKN040CB
     FM030100 VRB02KT P6SM BKN200
     FM030400 02002KT 3SM BR BKN200
     FM030900 01003KT 2SM BR BKN200
     FM031300 06005KT 5SM BR BKN200=



000
FTUS41 KPHI 021721
TAFRDG
TAF
KRDG 021721Z 0218/0318 27005KT P6SM BKN050
     FM030000 VRB02KT P6SM SCT050 BKN150
     FM030800 VRB02KT 6SM BR BKN150=



000
FTUS41 KPHI 021721
TAFABE
TAF
KABE 021721Z 0218/0318 25005KT P6SM BKN050
     FM030000 VRB02KT P6SM SCT050 BKN150
     FM030900 VRB02KT 6SM BR BKN150=



000
FTUS41 KPHI 021721
TAFPNE
TAF
KPNE 021721Z 0218/0318 10007KT P6SM FEW050
      TEMPO 0218/0220 6SM SHRA BKN050
     FM030000 VRB02KT P6SM SCT050 BKN150
     FM030900 VRB02KT 6SM BR BKN150=



000
FTUS41 KPHI 021721
TAFMIV
TAF
KMIV 021721Z 0218/0318 13004KT P6SM SCT050 OVC090
      TEMPO 0218/0221 2SM SHRA BKN040
     FM022100 VRB04KT P6SM SCT050 BKN150
     FM030400 VRB02KT 5SM BR SCT050 BKN200
     FM031400 07005KT P6SM BKN200=



000
FTUS41 KPHI 021721
TAFTTN
TAF
KTTN 021721Z 0218/0318 16005KT P6SM FEW050
      TEMPO 0218/0220 6SM SHRA BKN050
     FM030000 VRB02KT P6SM SCT050 BKN150
     FM030900 VRB02KT 6SM BR BKN150=



000
FTUS41 KPHI 021721
TAFILG
TAF
KILG 021721Z 0218/0318 06005KT P6SM SCT050 OVC100
      TEMPO 0218/0220 5SM -SHRA BKN050
     FM030100 15005KT P6SM SCT050 BKN150
     FM030900 VRB02KT 5SM BR BKN150
     FM031300 06006KT P6SM SCT150=



000
FTUS41 KPHI 021633 AAD
TAFPHL
TAF AMD
KPHL 021633Z 0217/0318 06005KT P6SM SCT080
     FM021800 09005KT P6SM VCSH BKN050
     FM022000 06005KT P6SM FEW050 BKN250
     FM030400 03004KT 5SM BR BKN150
     FM031300 07006KT P6SM BKN150=



000
FTUS41 KPHI 021601 AAC
TAFPHL
TAF AMD
KPHL 021601Z 0216/0318 06005KT P6SM SCT080
     FM021800 09005KT P6SM VCSH BKN050
     FM022000 06005KT P6SM FEW050 BKN250
     FM030400 03004KT 5SM BR BKN150
     FM031300 07062KT P6SM BKN150=



000
FTUS41 KPHI 021458 AAC
TAFACY
TAF AMD
KACY 021458Z 0215/0312 VRB06KT P6SM BKN100
      TEMPO 0215/0217 2SM TSRA BKN050CB
     FM021700 15005KT P6SM SHRA BKN050
     FM022200 13006KT P6SM BKN050
     FM030100 VRB02KT P6SM SCT050 BKN150
     FM030400 02002KT 3SM BR BKN150=



000
FTUS41 KPHI 021455 AAB
TAFPHL
TAF AMD
KPHL 021455Z 0215/0318 06005KT P6SM VCSH SCT080
      TEMPO 0215/0218 3SM -SHRA BKN050
     FM021800 09005KT P6SM VCSH BKN050
     FM022000 06005KT P6SM FEW050 BKN250
     FM030400 03004KT 5SM BR BKN150
     FM031300 07062KT P6SM BKN150=



000
FTUS41 KPHI 021348 AAB
TAFACY
TAF AMD
KACY 021348Z 0214/0312 VRB06KT P6SM BKN100
      TEMPO 0214/0218 3SM -TSRA BKN050CB
     FM021800 15005KT P6SM SHRA BKN050
     FM022200 13006KT P6SM BKN050
     FM030100 VRB02KT P6SM SCT050 BKN150
     FM030400 02002KT 3SM BR BKN150=



000
FTUS41 KPHI 021345 AAA
TAFMIV
TAF AMD
KMIV 021345Z 0214/0312 VRB06KT P6SM VCSH SCT070
      TEMPO 0214/0218 3SM -TSRA BKN050CB
     FM021800 13004KT P6SM SHRA BKN050
     FM022100 VRB04KT P6SM SCT050 BKN150
     FM030300 VRB02KT 5SM BR SCT050 BKN150
     FM030800 VRB02KT 2SM BR BKN150=



000
FTUS41 KPHI 021326 AAB
TAFILG
TAF AMD
KILG 021326Z 0213/0312 VRB06KT P6SM VCSH SCT060
      TEMPO 0213/0215 4SM SHRA BKN050
     FM021600 15005KT P6SM -SHRA BKN050
     FM030100 15005KT P6SM SCT050 BKN150
     FM030500 VRB02KT 5SM BR BKN150=



000
FTUS41 KPHI 021304 AAA
TAFPHL
TAF AMD
KPHL 021304Z 0213/0318 VRB03KT P6SM VCSH SCT080
      TEMPO 0213/0217 3SM -SHRA BKN050
     FM021700 12005KT P6SM VCSH BKN050
     FM030100 15005KT P6SM SCT050 BKN150
     FM030600 VRB02KT 5SM BR BKN150
     FM031300 07062KT P6SM BKN150=



000
FTUS41 KPHI 021257 AAA
TAFILG
TAF AMD
KILG 021257Z 0213/0312 VRB06KT P6SM VCSH SCT060
      TEMPO 0213/0215 2SM SHRA BKN050
     FM021600 15005KT P6SM -SHRA BKN050
     FM030100 15005KT P6SM SCT050 BKN150
     FM030500 VRB02KT 5SM BR BKN150=



000
FTUS41 KPHI 021257 AAA
TAFILG
TAF AMD
KILG 021257Z 0213/0312 VRB06KT P6SM VCSH SCT060
      TEMPO 0213/0215 2SM SHRA BKN050
     FM021600 15005KT P6SM -SHRA BKN050
     FM030100 15005KT P6SM SCT050 BKN150
     FM030500 VRB02KT 5SM BR BKN150=



000
FTUS41 KPHI 021225 AAA
TAFACY
TAF AMD
KACY 021225Z 0212/0312 VRB03KT 6SM BR VCSH BKN100
     FM021500 07006KT P6SM -SHRA BKN050 BKN100
     FM021800 15005KT P6SM SHRA BKN050
      TEMPO 0219/0223 3SM TSRA BKN035CB
     FM030100 VRB02KT P6SM SCT050 BKN150
     FM030400 VRB02KT 3SM BR BKN150=



000
FTUS41 KPHI 021124
TAFMIV
TAF
KMIV 021124Z 0212/0312 VRB03KT 6SM BR VCSH SCT070
      TEMPO 0212/0213 2SM BR
     FM021500 09004KT P6SM -SHRA BKN050 BKN100
     FM021800 13004KT P6SM SHRA BKN050
      TEMPO 0218/0222 3SM TSRA BKN035CB
     FM030000 00000KT P6SM SCT050 BKN150
     FM030300 VRB02KT 5SM BR SCT050 BKN150
     FM030800 VRB02KT 2SM BR BKN150=



000
FTUS41 KPHI 021124
TAFRDG
TAF
KRDG 021124Z 0212/0312 VRB02KT P6SM BKN080
      TEMPO 0212/0213 4SM BR
     FM021700 27005KT P6SM BKN050
     FM030000 VRB02KT P6SM SCT050 BKN150
     FM030800 VRB02KT 4SM BR BKN150=



000
FTUS41 KPHI 021124
TAFABE
TAF
KABE 021124Z 0212/0312 VRB02KT P6SM SCT060
     FM021700 25005KT P6SM BKN050
     FM030000 VRB02KT P6SM SCT050 BKN150
     FM030600 VRB02KT 4SM BR BKN150=



000
FTUS41 KPHI 021124
TAFILG
TAF
KILG 021124Z 0212/0312 VRB03KT P6SM VCSH SCT060
      TEMPO 0212/0213 5SM BR
     FM021600 15005KT P6SM -SHRA BKN050
     FM030100 15005KT P6SM SCT050 BKN150
     FM030500 VRB02KT 5SM BR BKN150=



000
FTUS41 KPHI 021124
TAFTTN
TAF
KTTN 021124Z 0212/0312 VRB03KT P6SM BKN060
     FM021600 16005KT P6SM -SHRA BKN050
     FM030000 VRB02KT P6SM SCT050 BKN150
     FM030400 VRB02KT 4SM BR BKN150=



000
FTUS41 KPHI 021124
TAFPNE
TAF
KPNE 021124Z 0212/0312 03005KT P6SM VCSH SCT080
      TEMPO 0212/0213 6SM HZ
     FM021600 10007KT P6SM -SHRA BKN050
     FM030000 VRB02KT P6SM SCT050 BKN150
     FM030600 VRB02KT 5SM BR BKN150=



000
FTUS41 KPHI 021124
TAFPHL
TAF
KPHL 021124Z 0212/0318 VRB03KT P6SM VCSH SCT080
     FM021600 12005KT P6SM -SHRA BKN050
     FM030100 15005KT P6SM SCT050 BKN150
     FM030600 VRB02KT 5SM BR BKN150
     FM031300 07062KT P6SM BKN150=



000
FTUS41 KPHI 021124
TAFACY
TAF
KACY 021124Z 0212/0312 VRB03KT 6SM BR VCSH BKN100
      TEMPO 0212/0213 4SM BR
     FM021500 07006KT P6SM -SHRA BKN050 BKN100
     FM021800 15005KT P6SM SHRA BKN050
      TEMPO 0219/0223 3SM TSRA BKN035CB
     FM030100 VRB02KT P6SM SCT050 BKN150
     FM030400 VRB02KT 3SM BR BKN150
      AMD NOT SKED=



000
FTUS41 KPHI 021023 AAC
TAFMIV
TAF AMD
KMIV 021023Z 0210/0306 VRB03KT 3SM BR VCSH BKN070
      TEMPO 0210/0213 1SM BR
     FM021400 09004KT P6SM VCSH BKN050 BKN100
     FM021800 13004KT P6SM SHRA BKN050
     FM030000 00000KT P6SM SCT050 BKN150=



000
FTUS41 KPHI 021022 AAA
TAFRDG
TAF AMD
KRDG 021022Z 0210/0306 VRB02KT P6SM BKN080
      TEMPO 0210/0213 4SM BR
     FM021700 27005KT P6SM BKN050
     FM030000 VRB02KT P6SM SCT050 BKN150=



000
FTUS41 KPHI 021022 AAC
TAFACY
TAF AMD
KACY 021022Z 0210/0306 VRB03KT 6SM BR VCSH SCT090 BKN100
      TEMPO 0210/0213 4SM BR
     FM021500 07006KT P6SM VCSH BKN050 BKN100
     FM021800 15005KT P6SM SHRA BKN050
     FM030100 VRB02KT P6SM SCT050 BKN150
      AMD NOT SKED=



000
FTUS41 KPHI 021003 CCA
TAFTTN
TAF COR
KTTN 021003Z 0210/0306 VRB03KT P6SM BKN060
      TEMPO 0210/0212 5SM BR
     FM021600 20005KT P6SM BKN050
     FM030000 VRB02KT P6SM SCT050 BKN150=



000
FTUS41 KPHI 021002 AAA
TAFTTN
TAF AMD
KTTN 021002Z 0210/0306 VRB03KT P6SM BKN060
      TEMPO 0210/0212 2SM BR
     FM021600 20005KT P6SM BKN050
     FM030000 VRB02KT P6SM SCT050 BKN150=



000
FTUS41 KPHI 020953 AAB
TAFABE
TAF AMD
KABE 020953Z 0210/0306 VRB02KT 4SM BR SCT250
      TEMPO 0210/0212 2SM BR
     FM021700 25005KT P6SM BKN050
     FM030000 VRB02KT P6SM SCT050 BKN150=



000
FTUS41 KPHI 020858 AAA
TAFPHL
TAF AMD
KPHL 020858Z 0209/0312 VRB03KT P6SM SCT070
     FM021600 16005KT P6SM BKN050
     FM021900 20006KT P6SM BKN050
     FM030100 15005KT P6SM SCT050 BKN150
     FM030500 VRB02KT P6SM SCT050 BKN150=



000
FTUS41 KPHI 020753 AAB
TAFMIV
TAF AMD
KMIV 020753Z 0208/0306 VRB03KT 3SM BR VCSH SCT090 BKN120
      TEMPO 0208/0212 1SM BR
     FM021500 09004KT P6SM VCSH BKN050 BKN100
     FM021800 13004KT P6SM SHRA BKN050
     FM030000 00000KT P6SM SCT050 BKN150=



000
FTUS41 KPHI 020753 AAB
TAFACY
TAF AMD
KACY 020753Z 0208/0306 VRB03KT 4SM BR VCSH SCT090 BKN100
      TEMPO 0208/0212 1SM BR
     FM021500 07006KT P6SM VCSH BKN050 BKN100
     FM021800 15005KT P6SM SHRA BKN050
     FM030100 VRB02KT P6SM SCT050 BKN150=



000
FTUS41 KPHI 020729 AAA
TAFACY
TAF AMD
KACY 020729Z 0207/0306 VRB03KT 6SM BR VCSH SCT090 BKN100
      TEMPO 0207/0211 1SM BR
     FM021500 07006KT P6SM VCSH BKN050 BKN100
     FM021800 15005KT P6SM SHRA BKN050
     FM030100 VRB02KT P6SM SCT050 BKN150=



000
FTUS41 KPHI 020657 AAA
TAFMIV
TAF AMD
KMIV 020657Z 0207/0306 VRB03KT 3SM BR VCSH SCT090 BKN120
      TEMPO 0207/0211 2SM BR
     FM021500 09004KT P6SM VCSH BKN050 BKN100
     FM021800 13004KT P6SM SHRA BKN050
     FM030000 00000KT P6SM SCT050 BKN150=



000
FTUS41 KPHI 020655 AAA
TAFABE
TAF AMD
KABE 020655Z 0207/0306 VRB02KT P6SM SCT250
      TEMPO 0207/0211 4SM BR
     FM021700 25005KT P6SM BKN050
     FM030000 VRB02KT P6SM SCT050 BKN150=



000
FTUS41 KPHI 020524
TAFMIV
TAF
KMIV 020524Z 0206/0306 VRB03KT 4SM BR VCSH BKN080
     FM021500 09004KT P6SM VCSH BKN050 BKN100
     FM021800 13004KT P6SM SHRA BKN050
     FM030000 00000KT P6SM SCT050 BKN150=



000
FTUS41 KPHI 020524
TAFPHL
TAF
KPHL 020524Z 0206/0312 28004KT P6SM SCT250
     FM021000 03005KT P6SM BKN250
     FM021600 16005KT P6SM BKN050
     FM021900 20006KT P6SM BKN050
     FM030100 15005KT P6SM SCT050 BKN150
     FM030500 VRB02KT P6SM SCT050 BKN150=



000
FTUS41 KPHI 020524
TAFRDG
TAF
KRDG 020524Z 0206/0306 VRB02KT P6SM SCT250
      TEMPO 0208/0211 4SM BR
     FM021700 27005KT P6SM BKN050
     FM030000 VRB02KT P6SM SCT050 BKN150=



000
FTUS41 KPHI 020524
TAFPNE
TAF
KPNE 020524Z 0206/0306 29004KT P6SM SCT250
     FM021000 03005KT P6SM BKN250
     FM021600 13007KT P6SM BKN050
     FM021900 21005KT P6SM BKN050
     FM030000 VRB02KT P6SM SCT050 BKN150=



000
FTUS41 KPHI 020524
TAFABE
TAF
KABE 020524Z 0206/0306 VRB02KT P6SM SCT250
      TEMPO 0208/0211 4SM BR
     FM021700 25005KT P6SM BKN050
     FM030000 VRB02KT P6SM SCT050 BKN150=



000
FTUS41 KPHI 020524
TAFILG
TAF
KILG 020524Z 0206/0306 VRB03KT P6SM SCT250
     FM021200 03005KT P6SM BKN250
     FM021600 15005KT P6SM BKN050
     FM030400 VRB02KT P6SM SCT050 BKN150=



000
FTUS41 KPHI 020524
TAFACY
TAF
KACY 020524Z 0206/0306 VRB03KT 6SM BR VCSH SCT090 BKN120
      TEMPO 0207/0211 5SM BR
     FM021500 07006KT P6SM VCSH BKN050 BKN100
     FM021800 15005KT P6SM SHRA BKN050
     FM030100 VRB02KT P6SM SCT050 BKN150=



000
FTUS41 KPHI 020524
TAFPHL
TAF
KPHL 020524Z 0206/0312 28004KT P6SM SCT250
     FM021000 03005KT P6SM BKN250
     FM021600 16005KT P6SM BKN050
     FM021900 20006KT P6SM BKN050
     FM030100 15005KT P6SM SCT050 BKN150
     FM030500 VRB02KT P6SM SCT050 BKN150=



000
FTUS41 KPHI 020524
TAFABE
TAF
KABE 020524Z 0206/0306 VRB02KT P6SM SCT250
      TEMPO 0208/0211 4SM BR
     FM021700 25005KT P6SM BKN050
     FM030000 VRB02KT P6SM SCT050 BKN150=



000
FTUS41 KPHI 020524
TAFTTN
TAF
KTTN 020524Z 0206/0306 30003KT P6SM SCT250
     FM020800 VRB03KT P6SM BKN250
     FM021600 20005KT P6SM BKN050
     FM030000 VRB02KT P6SM SCT050 BKN150=



000
FTUS41 KPHI 020406 AAE
TAFACY
TAF AMD
KACY 020406Z 0204/0224 04005KT P6SM VCSH SCT035 BKN050
      TEMPO 0205/0206 2SM -SHRA
     FM020700 VRB03KT P6SM SCT050 BKN080
      TEMPO 0208/0211 5SM BR
     FM021800 12007KT P6SM SCT050 BKN100
     FM022100 15005KT P6SM VCSH BKN050=



000
FTUS41 KPHI 020343 AAD
TAFACY
TAF AMD
KACY 020343Z 0204/0224 05005KT P6SM VCSH SCT035 BKN050
      TEMPO 0204/0205 5SM -SHRA
     FM020700 VRB03KT P6SM SCT050 BKN080
      TEMPO 0208/0211 5SM BR
     FM021800 12007KT P6SM SCT050 BKN100
     FM022100 15005KT P6SM VCSH BKN050=



000
FTUS41 KPHI 020304 AAC
TAFACY
TAF AMD
KACY 020304Z 0203/0224 20005KT P6SM VCSH SCT050
      TEMPO 0203/0204 28020G30KT 1/2SM +TSRA BKN045CB
     FM020500 03003KT P6SM BKN250
      TEMPO 0208/0211 5SM BR
     FM021800 12007KT P6SM SCT050 BKN100
     FM022100 15005KT P6SM VCSH BKN050=



000
FTUS41 KPHI 020247 CCA
TAFACY
TAF COR
KACY 020247Z 0203/0224 20005KT P6SM VCSH SCT050
      TEMPO 0203/0204 27010G20KT 2SM TSRA BKN050CB
     FM020500 03003KT P6SM BKN250
      TEMPO 0208/0211 5SM BR
     FM021800 12007KT P6SM SCT050 BKN100
     FM022100 15005KT P6SM VCSH BKN050=



000
FTUS41 KPHI 020246 AAB
TAFACY
TAF AMD
KACY 020246Z 0203/0224 20005KT P6SM VCSH SCT050
      TEMPO 0203/0204 2SM TSRA BKN050CB
     FM020500 03003KT P6SM BKN250
      TEMPO 0208/0211 5SM BR
     FM021800 12007KT P6SM SCT050 BKN100
     FM022100 15005KT P6SM VCSH BKN050=



    US Dept of Commerce
    National Oceanic and Atmospheric Administration
    National Weather Service
    1325 East West Highway
    Silver Spring, MD 20910
    Page Author: NWS Internet Services Team
Disclaimer
Information Quality
Credits
Glossary
Privacy Policy
Freedom of Information Act (FOIA)
About Us
Career Opportunities